Terminal Aerodrome Forecast
Issued by NWS

Home | Current Version | Previous Version | Text Only | Print | Product List | Glossary On
Versions: 1 2 3 4 5 6 7 8 9 10 11 12 13 14 15 16 17
000
FTUS43 KGRR 262300
TAFMKG
TAF
KMKG 262340Z 2700/2724 10007KT P6SM -SHSN OVC035
     FM271000 32006KT 4SM -SN OVC025
     FM271500 34010KT 2SM -SN OVC015
     FM272000 35010KT 5SM -SHSN OVC025=

USA.gov is the U.S. government's official web portal to all federal, state and local government web resources and services.